sensor_id;sensor_type;location;lat;lon;timestamp;pressure;altitude;pressure_sealevel;temperature;humidity
39309;BME280;26019;47.510;19.122;2024-01-15T00:04:59;99031.31;;;-1.11;100.00
39309;BME280;26019;47.510;19.122;2024-01-15T00:15:01;99019.47;;;-1.12;100.00
39309;BME280;26019;47.510;19.122;2024-01-15T00:25:04;98993.69;;;-0.91;100.00
39309;BME280;26019;47.510;19.122;2024-01-15T00:35:08;98975.81;;;-0.95;100.00
39309;BME280;26019;47.510;19.122;2024-01-15T00:45:10;98971.16;;;-0.73;100.00
39309;BME280;26019;47.510;19.122;2024-01-15T00:55:12;98973.88;;;-0.61;100.00
39309;BME280;26019;47.510;19.122;2024-01-15T01:05:14;98964.06;;;-0.90;100.00
39309;BME280;26019;47.510;19.122;2024-01-15T01:15:16;98943.06;;;-0.83;100.00
39309;BME280;26019;47.510;19.122;2024-01-15T01:25:18;98916.69;;;-0.93;100.00
39309;BME280;26019;47.510;19.122;2024-01-15T01:35:19;98913.16;;;-1.02;100.00
39309;BME280;26019;47.510;19.122;2024-01-15T01:45:21;98897.25;;;-1.40;100.00
39309;BME280;26019;47.510;19.122;2024-01-15T01:55:26;98883.47;;;-1.53;100.00
39309;BME280;26019;47.510;19.122;2024-01-15T02:05:30;98861.38;;;-1.58;100.00
39309;BME280;26019;47.510;19.122;2024-01-15T02:15:32;98838.19;;;-1.78;100.00
39309;BME280;26019;47.510;19.122;2024-01-15T02:25:39;98868.00;;;-1.67;100.00
39309;BME280;26019;47.510;19.122;2024-01-15T02:35:41;98844.88;;;-1.84;100.00
39309;BME280;26019;47.510;19.122;2024-01-15T02:45:43;98824.63;;;-1.82;100.00
39309;BME280;26019;47.510;19.122;2024-01-15T02:55:59;98823.38;;;-2.03;100.00
39309;BME280;26019;47.510;19.122;2024-01-15T03:06:01;98823.19;;;-2.12;100.00
39309;BME280;26019;47.510;19.122;2024-01-15T03:16:05;98784.44;;;-2.08;100.00
39309;BME280;26019;47.510;19.122;2024-01-15T03:26:09;98792.72;;;-2.15;100.00
39309;BME280;26019;47.510;19.122;2024-01-15T03:36:13;98791.22;;;-2.07;100.00
39309;BME280;26019;47.510;19.122;2024-01-15T03:46:16;98786.28;;;-2.01;100.00
39309;BME280;26019;47.510;19.122;2024-01-15T03:56:19;98804.84;;;-2.02;100.00
39309;BME280;26019;47.510;19.122;2024-01-15T04:06:21;98803.06;;;-2.04;100.00
39309;BME280;26019;47.510;19.122;2024-01-15T04:16:23;98782.59;;;-2.15;100.00
39309;BME280;26019;47.510;19.122;2024-01-15T04:26:37;98748.81;;;-2.17;100.00
39309;BME280;26019;47.510;19.122;2024-01-15T04:36:39;98745.25;;;-2.26;100.00
39309;BME280;26019;47.510;19.122;2024-01-15T04:46:42;98749.44;;;-2.28;100.00
39309;BME280;26019;47.510;19.122;2024-01-15T04:56:48;98743.50;;;-2.30;100.00
39309;BME280;26019;47.510;19.122;2024-01-15T05:06:58;98756.25;;;-2.25;100.00
39309;BME280;26019;47.510;19.122;2024-01-15T05:17:00;98768.50;;;-2.45;100.00
39309;BME280;26019;47.510;19.122;2024-01-15T05:27:04;98747.13;;;-2.58;100.00
39309;BME280;26019;47.510;19.122;2024-01-15T05:37:10;98760.84;;;-2.48;100.00
39309;BME280;26019;47.510;19.122;2024-01-15T05:47:13;98770.19;;;-2.44;100.00
39309;BME280;26019;47.510;19.122;2024-01-15T05:57:18;98780.09;;;-2.53;100.00
39309;BME280;26019;47.510;19.122;2024-01-15T06:07:22;98762.44;;;-2.52;100.00
39309;BME280;26019;47.510;19.122;2024-01-15T06:17:24;98750.84;;;-2.42;100.00
39309;BME280;26019;47.510;19.122;2024-01-15T06:27:27;98766.38;;;-2.65;100.00
39309;BME280;26019;47.510;19.122;2024-01-15T06:37:30;98757.84;;;-2.70;100.00
39309;BME280;26019;47.510;19.122;2024-01-15T06:47:32;98775.41;;;-2.76;100.00
39309;BME280;26019;47.510;19.122;2024-01-15T06:57:36;98770.22;;;-2.81;100.00
39309;BME280;26019;47.510;19.122;2024-01-15T07:07:38;98779.91;;;-2.63;100.00
39309;BME280;26019;47.510;19.122;2024-01-15T07:17:41;98774.09;;;-2.59;100.00
39309;BME280;26019;47.510;19.122;2024-01-15T07:27:42;98794.69;;;-2.42;100.00
39309;BME280;26019;47.510;19.122;2024-01-15T07:37:47;98801.59;;;-2.36;100.00
39309;BME280;26019;47.510;19.122;2024-01-15T07:47:49;98810.47;;;-2.14;100.00
39309;BME280;26019;47.510;19.122;2024-01-15T07:57:52;98822.34;;;-1.70;100.00
39309;BME280;26019;47.510;19.122;2024-01-15T08:08:10;98799.97;;;0.29;100.00
39309;BME280;26019;47.510;19.122;2024-01-15T08:18:12;98842.22;;;2.40;100.00
39309;BME280;26019;47.510;19.122;2024-01-15T08:28:14;98842.56;;;5.06;91.20
39309;BME280;26019;47.510;19.122;2024-01-15T08:38:16;98845.97;;;6.06;59.86
39309;BME280;26019;47.510;19.122;2024-01-15T08:48:24;98847.78;;;5.95;55.13
39309;BME280;26019;47.510;19.122;2024-01-15T08:58:31;98851.66;;;6.35;55.15
39309;BME280;26019;47.510;19.122;2024-01-15T09:08:41;98853.38;;;6.31;52.92
39309;BME280;26019;47.510;19.122;2024-01-15T09:18:42;98849.00;;;12.19;38.40
39309;BME280;26019;47.510;19.122;2024-01-15T09:28:45;98825.06;;;12.82;35.74
39309;BME280;26019;47.510;19.122;2024-01-15T09:38:46;98822.91;;;13.78;33.33
39309;BME280;26019;47.510;19.122;2024-01-15T09:48:48;98795.75;;;13.45;32.36
39309;BME280;26019;47.510;19.122;2024-01-15T09:58:51;98775.66;;;12.40;33.82
39309;BME280;26019;47.510;19.122;2024-01-15T10:08:56;98764.75;;;12.08;33.96
39309;BME280;26019;47.510;19.122;2024-01-15T10:19:05;98761.38;;;11.32;34.59
39309;BME280;26019;47.510;19.122;2024-01-15T10:29:10;98745.16;;;10.74;35.48
39309;BME280;26019;47.510;19.122;2024-01-15T10:39:13;98721.06;;;11.75;33.53
39309;BME280;26019;47.510;19.122;2024-01-15T10:49:16;98738.84;;;10.83;35.12
39309;BME280;26019;47.510;19.122;2024-01-15T10:59:20;98727.19;;;10.97;35.28
39309;BME280;26019;47.510;19.122;2024-01-15T11:09:28;98729.66;;;11.01;35.76
39309;BME280;26019;47.510;19.122;2024-01-15T11:19:50;98698.88;;;11.44;34.64
39309;BME280;26019;47.510;19.122;2024-01-15T11:30:03;98709.09;;;11.24;35.78
39309;BME280;26019;47.510;19.122;2024-01-15T11:40:07;98699.56;;;11.97;33.76
39309;BME280;26019;47.510;19.122;2024-01-15T11:50:21;98699.97;;;12.32;33.73
39309;BME280;26019;47.510;19.122;2024-01-15T12:00:23;98671.69;;;11.58;34.69
39309;BME280;26019;47.510;19.122;2024-01-15T12:10:25;98666.84;;;12.40;32.79
39309;BME280;26019;47.510;19.122;2024-01-15T12:20:31;98669.03;;;12.29;33.11
39309;BME280;26019;47.510;19.122;2024-01-15T12:30:34;98646.56;;;12.73;31.99
39309;BME280;26019;47.510;19.122;2024-01-15T12:40:48;98637.97;;;13.33;30.66
39309;BME280;26019;47.510;19.122;2024-01-15T12:50:56;98635.53;;;9.99;36.01
39309;BME280;26019;47.510;19.122;2024-01-15T13:00:58;98627.94;;;9.03;38.52
39309;BME280;26019;47.510;19.122;2024-01-15T13:11:00;98624.50;;;11.02;35.37
39309;BME280;26019;47.510;19.122;2024-01-15T13:21:02;98633.72;;;10.58;37.06
39309;BME280;26019;47.510;19.122;2024-01-15T13:31:04;98617.09;;;11.88;33.53
39309;BME280;26019;47.510;19.122;2024-01-15T13:41:07;98633.47;;;9.52;37.35
39309;BME280;26019;47.510;19.122;2024-01-15T13:51:13;98643.75;;;7.79;40.86
39309;BME280;26019;47.510;19.122;2024-01-15T14:01:15;98639.44;;;8.57;40.17
39309;BME280;26019;47.510;19.122;2024-01-15T14:11:19;98629.44;;;7.23;43.93
39309;BME280;26019;47.510;19.122;2024-01-15T14:21:21;98629.22;;;7.34;42.96
39309;BME280;26019;47.510;19.122;2024-01-15T14:31:23;98642.28;;;6.21;45.48
39309;BME280;26019;47.510;19.122;2024-01-15T14:41:28;98632.63;;;5.04;49.68
39309;BME280;26019;47.510;19.122;2024-01-15T14:52:25;98650.13;;;4.60;51.84
39309;BME280;26019;47.510;19.122;2024-01-15T15:02:28;98649.34;;;4.47;52.93
39309;BME280;26019;47.510;19.122;2024-01-15T15:12:36;98643.59;;;4.19;54.45
39309;BME280;26019;47.510;19.122;2024-01-15T15:22:38;98641.13;;;4.03;56.05
39309;BME280;26019;47.510;19.122;2024-01-15T15:32:40;98641.97;;;4.13;55.81
39309;BME280;26019;47.510;19.122;2024-01-15T15:42:42;98648.84;;;3.99;55.52
39309;BME280;26019;47.510;19.122;2024-01-15T15:52:43;98642.09;;;3.85;56.38
39309;BME280;26019;47.510;19.122;2024-01-15T16:02:46;98669.38;;;3.85;58.35
39309;BME280;26019;47.510;19.122;2024-01-15T16:12:49;98675.41;;;3.65;59.44
39309;BME280;26019;47.510;19.122;2024-01-15T16:22:51;98689.00;;;3.70;60.15
39309;BME280;26019;47.510;19.122;2024-01-15T16:33:15;98688.25;;;3.48;59.06
39309;BME280;26019;47.510;19.122;2024-01-15T16:43:16;98707.06;;;3.21;57.50
39309;BME280;26019;47.510;19.122;2024-01-15T16:53:19;98718.13;;;3.17;59.13
39309;BME280;26019;47.510;19.122;2024-01-15T17:03:21;98749.63;;;2.95;58.22
39309;BME280;26019;47.510;19.122;2024-01-15T17:13:23;98741.97;;;3.12;58.03
39309;BME280;26019;47.510;19.122;2024-01-15T17:23:25;98747.09;;;2.94;58.48
39309;BME280;26019;47.510;19.122;2024-01-15T17:33:26;98755.59;;;2.83;59.78
39309;BME280;26019;47.510;19.122;2024-01-15T17:43:28;98738.56;;;2.73;60.85
39309;BME280;26019;47.510;19.122;2024-01-15T17:53:30;98730.91;;;2.92;62.40
39309;BME280;26019;47.510;19.122;2024-01-15T18:03:34;98727.50;;;2.74;67.74
39309;BME280;26019;47.510;19.122;2024-01-15T18:13:35;98741.09;;;2.56;66.46
39309;BME280;26019;47.510;19.122;2024-01-15T18:23:38;98775.09;;;2.47;68.04
39309;BME280;26019;47.510;19.122;2024-01-15T18:33:40;98748.75;;;2.58;70.02
39309;BME280;26019;47.510;19.122;2024-01-15T18:43:42;98799.78;;;2.58;72.92
39309;BME280;26019;47.510;19.122;2024-01-15T18:53:44;98810.81;;;2.50;75.63
39309;BME280;26019;47.510;19.122;2024-01-15T19:03:47;98802.25;;;2.30;72.01
39309;BME280;26019;47.510;19.122;2024-01-15T19:13:50;98806.47;;;2.29;73.77
39309;BME280;26019;47.510;19.122;2024-01-15T19:23:52;98803.09;;;2.26;72.76
39309;BME280;26019;47.510;19.122;2024-01-15T19:33:55;98807.31;;;2.20;73.68
39309;BME280;26019;47.510;19.122;2024-01-15T19:44:00;98769.06;;;2.17;76.24
39309;BME280;26019;47.510;19.122;2024-01-15T19:54:10;98792.00;;;2.17;76.94
39309;BME280;26019;47.510;19.122;2024-01-15T20:04:17;98801.28;;;2.06;76.54
39309;BME280;26019;47.510;19.122;2024-01-15T20:14:19;98829.38;;;2.11;75.83
39309;BME280;26019;47.510;19.122;2024-01-15T20:24:22;98871.84;;;2.18;79.90
39309;BME280;26019;47.510;19.122;2024-01-15T20:34:26;98857.41;;;2.15;78.49
39309;BME280;26019;47.510;19.122;2024-01-15T20:44:28;98884.50;;;2.01;79.88
39309;BME280;26019;47.510;19.122;2024-01-15T20:54:32;98893.00;;;2.00;78.51
39309;BME280;26019;47.510;19.122;2024-01-15T21:04:34;98853.09;;;2.05;80.02
39309;BME280;26019;47.510;19.122;2024-01-15T21:14:38;98881.03;;;1.86;80.40
39309;BME280;26019;47.510;19.122;2024-01-15T21:24:43;98904.81;;;1.87;76.94
39309;BME280;26019;47.510;19.122;2024-01-15T21:34:44;98907.41;;;1.91;76.43
39309;BME280;26019;47.510;19.122;2024-01-15T21:44:48;98925.22;;;1.90;78.80
39309;BME280;26019;47.510;19.122;2024-01-15T21:54:52;98923.47;;;1.81;79.38
39309;BME280;26019;47.510;19.122;2024-01-15T22:04:54;98938.66;;;1.72;80.35
39309;BME280;26019;47.510;19.122;2024-01-15T22:14:56;98964.13;;;1.67;82.39
39309;BME280;26019;47.510;19.122;2024-01-15T22:24:58;98947.84;;;1.51;83.09
39309;BME280;26019;47.510;19.122;2024-01-15T22:35:02;98965.50;;;1.31;83.50
39309;BME280;26019;47.510;19.122;2024-01-15T22:45:12;98970.53;;;1.26;84.12
39309;BME280;26019;47.510;19.122;2024-01-15T22:55:18;98981.72;;;1.44;83.59
39309;BME280;26019;47.510;19.122;2024-01-15T23:05:20;98989.47;;;1.53;83.72
39309;BME280;26019;47.510;19.122;2024-01-15T23:15:23;98963.13;;;1.51;85.18
39309;BME280;26019;47.510;19.122;2024-01-15T23:25:43;98991.63;;;1.14;100.00
39309;BME280;26019;47.510;19.122;2024-01-15T23:35:45;98978.66;;;0.91;100.00
39309;BME280;26019;47.510;19.122;2024-01-15T23:45:46;99002.50;;;1.01;100.00
39309;BME280;26019;47.510;19.122;2024-01-15T23:55:56;99006.81;;;1.08;100.00
